sensor_id;sensor_type;location;lat;lon;timestamp;P1;durP1;ratioP1;P2;durP2;ratioP2
8225;SDS011;4154;48.810;9.012;2023-04-19T00:00:40;10.77;;;9.67;;
8225;SDS011;4154;48.810;9.012;2023-04-19T00:03:06;10.30;;;9.30;;
8225;SDS011;4154;48.810;9.012;2023-04-19T00:05:33;10.67;;;9.57;;
8225;SDS011;4154;48.810;9.012;2023-04-19T00:07:59;10.87;;;9.77;;
8225;SDS011;4154;48.810;9.012;2023-04-19T00:10:25;11.33;;;10.23;;
8225;SDS011;4154;48.810;9.012;2023-04-19T00:12:51;10.67;;;9.57;;
8225;SDS011;4154;48.810;9.012;2023-04-19T00:15:18;11.00;;;9.90;;
8225;SDS011;4154;48.810;9.012;2023-04-19T00:17:43;11.40;;;10.20;;
8225;SDS011;4154;48.810;9.012;2023-04-19T00:20:09;11.93;;;10.53;;
8225;SDS011;4154;48.810;9.012;2023-04-19T00:22:37;11.70;;;10.50;;
8225;SDS011;4154;48.810;9.012;2023-04-19T00:25:03;11.63;;;10.43;;
8225;SDS011;4154;48.810;9.012;2023-04-19T00:27:29;11.70;;;10.50;;
8225;SDS011;4154;48.810;9.012;2023-04-19T00:29:55;12.60;;;10.63;;
8225;SDS011;4154;48.810;9.012;2023-04-19T00:32:21;12.17;;;10.90;;
8225;SDS011;4154;48.810;9.012;2023-04-19T00:34:48;13.13;;;11.00;;
8225;SDS011;4154;48.810;9.012;2023-04-19T00:37:13;11.57;;;10.37;;
8225;SDS011;4154;48.810;9.012;2023-04-19T00:39:40;11.70;;;10.50;;
8225;SDS011;4154;48.810;9.012;2023-04-19T00:42:06;11.83;;;10.63;;
8225;SDS011;4154;48.810;9.012;2023-04-19T00:44:31;11.53;;;10.27;;
8225;SDS011;4154;48.810;9.012;2023-04-19T00:46:57;12.80;;;11.40;;
8225;SDS011;4154;48.810;9.012;2023-04-19T00:49:24;12.23;;;10.90;;
8225;SDS011;4154;48.810;9.012;2023-04-19T00:51:51;12.47;;;10.77;;
8225;SDS011;4154;48.810;9.012;2023-04-19T00:54:18;12.50;;;11.20;;
8225;SDS011;4154;48.810;9.012;2023-04-19T00:56:44;12.77;;;11.40;;
8225;SDS011;4154;48.810;9.012;2023-04-19T00:59:11;12.67;;;11.23;;
8225;SDS011;4154;48.810;9.012;2023-04-19T01:01:38;12.90;;;11.13;;
8225;SDS011;4154;48.810;9.012;2023-04-19T01:04:05;13.33;;;11.33;;
8225;SDS011;4154;48.810;9.012;2023-04-19T01:06:33;13.60;;;11.50;;
8225;SDS011;4154;48.810;9.012;2023-04-19T01:09:00;12.80;;;11.10;;
8225;SDS011;4154;48.810;9.012;2023-04-19T01:11:26;13.07;;;11.20;;
8225;SDS011;4154;48.810;9.012;2023-04-19T01:13:53;12.37;;;11.07;;
8225;SDS011;4154;48.810;9.012;2023-04-19T01:16:20;12.17;;;10.97;;
8225;SDS011;4154;48.810;9.012;2023-04-19T01:18:46;12.57;;;11.23;;
8225;SDS011;4154;48.810;9.012;2023-04-19T01:21:12;12.57;;;11.27;;
8225;SDS011;4154;48.810;9.012;2023-04-19T01:23:38;12.73;;;11.43;;
8225;SDS011;4154;48.810;9.012;2023-04-19T01:26:04;13.20;;;11.53;;
8225;SDS011;4154;48.810;9.012;2023-04-19T01:28:30;12.90;;;11.60;;
8225;SDS011;4154;48.810;9.012;2023-04-19T01:30:57;12.33;;;11.03;;
8225;SDS011;4154;48.810;9.012;2023-04-19T01:33:22;13.90;;;12.07;;
8225;SDS011;4154;48.810;9.012;2023-04-19T01:35:48;12.60;;;11.30;;
8225;SDS011;4154;48.810;9.012;2023-04-19T01:38:15;13.17;;;11.20;;
8225;SDS011;4154;48.810;9.012;2023-04-19T01:40:41;13.07;;;11.77;;
8225;SDS011;4154;48.810;9.012;2023-04-19T01:43:09;12.37;;;11.07;;
8225;SDS011;4154;48.810;9.012;2023-04-19T01:45:37;13.03;;;11.50;;
8225;SDS011;4154;48.810;9.012;2023-04-19T01:48:03;13.73;;;11.27;;
8225;SDS011;4154;48.810;9.012;2023-04-19T01:50:29;13.30;;;11.50;;
8225;SDS011;4154;48.810;9.012;2023-04-19T01:52:55;13.07;;;11.10;;
8225;SDS011;4154;48.810;9.012;2023-04-19T01:55:22;12.37;;;11.07;;
8225;SDS011;4154;48.810;9.012;2023-04-19T01:57:47;13.57;;;11.83;;
8225;SDS011;4154;48.810;9.012;2023-04-19T02:00:13;13.27;;;11.70;;
8225;SDS011;4154;48.810;9.012;2023-04-19T02:02:41;13.67;;;12.10;;
8225;SDS011;4154;48.810;9.012;2023-04-19T02:05:08;13.80;;;11.37;;
8225;SDS011;4154;48.810;9.012;2023-04-19T02:07:34;14.03;;;11.50;;
8225;SDS011;4154;48.810;9.012;2023-04-19T02:10:00;13.47;;;11.90;;
8225;SDS011;4154;48.810;9.012;2023-04-19T02:12:26;13.13;;;11.13;;
8225;SDS011;4154;48.810;9.012;2023-04-19T02:14:52;13.97;;;11.90;;
8225;SDS011;4154;48.810;9.012;2023-04-19T02:17:23;14.83;;;11.70;;
8225;SDS011;4154;48.810;9.012;2023-04-19T02:19:49;13.80;;;12.00;;
8225;SDS011;4154;48.810;9.012;2023-04-19T02:22:16;14.67;;;12.37;;
8225;SDS011;4154;48.810;9.012;2023-04-19T02:24:42;13.90;;;11.77;;
8225;SDS011;4154;48.810;9.012;2023-04-19T02:27:08;14.20;;;11.67;;
8225;SDS011;4154;48.810;9.012;2023-04-19T02:29:34;13.43;;;12.03;;
8225;SDS011;4154;48.810;9.012;2023-04-19T02:32:01;14.40;;;11.90;;
8225;SDS011;4154;48.810;9.012;2023-04-19T02:34:30;13.77;;;12.37;;
8225;SDS011;4154;48.810;9.012;2023-04-19T02:36:59;13.10;;;11.70;;
8225;SDS011;4154;48.810;9.012;2023-04-19T02:39:25;13.10;;;11.53;;
8225;SDS011;4154;48.810;9.012;2023-04-19T02:41:51;13.40;;;11.57;;
8225;SDS011;4154;48.810;9.012;2023-04-19T02:44:16;13.50;;;12.10;;
8225;SDS011;4154;48.810;9.012;2023-04-19T02:46:49;14.43;;;12.67;;
8225;SDS011;4154;48.810;9.012;2023-04-19T02:49:16;13.23;;;11.80;;
8225;SDS011;4154;48.810;9.012;2023-04-19T02:51:42;13.60;;;12.13;;
8225;SDS011;4154;48.810;9.012;2023-04-19T02:54:09;13.27;;;11.73;;
8225;SDS011;4154;48.810;9.012;2023-04-19T02:56:36;13.23;;;11.93;;
8225;SDS011;4154;48.810;9.012;2023-04-19T02:59:02;14.10;;;12.33;;
8225;SDS011;4154;48.810;9.012;2023-04-19T03:01:29;13.40;;;12.00;;
8225;SDS011;4154;48.810;9.012;2023-04-19T03:03:55;14.10;;;12.10;;
8225;SDS011;4154;48.810;9.012;2023-04-19T03:06:22;12.90;;;11.57;;
8225;SDS011;4154;48.810;9.012;2023-04-19T03:08:47;13.57;;;12.17;;
8225;SDS011;4154;48.810;9.012;2023-04-19T03:11:14;14.20;;;12.67;;
8225;SDS011;4154;48.810;9.012;2023-04-19T03:13:41;12.97;;;11.67;;
8225;SDS011;4154;48.810;9.012;2023-04-19T03:16:07;13.67;;;11.77;;
8225;SDS011;4154;48.810;9.012;2023-04-19T03:18:33;13.37;;;11.97;;
8225;SDS011;4154;48.810;9.012;2023-04-19T03:21:00;15.83;;;11.90;;
8225;SDS011;4154;48.810;9.012;2023-04-19T03:23:26;13.03;;;11.63;;
8225;SDS011;4154;48.810;9.012;2023-04-19T03:25:53;14.47;;;12.17;;
8225;SDS011;4154;48.810;9.012;2023-04-19T03:28:19;13.33;;;12.03;;
8225;SDS011;4154;48.810;9.012;2023-04-19T03:30:45;14.27;;;12.20;;
8225;SDS011;4154;48.810;9.012;2023-04-19T03:33:11;14.60;;;12.33;;
8225;SDS011;4154;48.810;9.012;2023-04-19T03:35:37;14.47;;;12.43;;
8225;SDS011;4154;48.810;9.012;2023-04-19T03:38:02;14.63;;;13.07;;
8225;SDS011;4154;48.810;9.012;2023-04-19T03:40:29;13.67;;;12.27;;
8225;SDS011;4154;48.810;9.012;2023-04-19T03:42:57;13.60;;;12.20;;
8225;SDS011;4154;48.810;9.012;2023-04-19T03:45:23;14.13;;;12.60;;
8225;SDS011;4154;48.810;9.012;2023-04-19T03:47:49;14.80;;;12.40;;
8225;SDS011;4154;48.810;9.012;2023-04-19T03:50:14;13.90;;;12.40;;
8225;SDS011;4154;48.810;9.012;2023-04-19T03:52:40;14.73;;;13.23;;
8225;SDS011;4154;48.810;9.012;2023-04-19T03:55:06;15.13;;;12.27;;
8225;SDS011;4154;48.810;9.012;2023-04-19T03:57:33;14.47;;;12.60;;
8225;SDS011;4154;48.810;9.012;2023-04-19T03:59:59;14.00;;;12.27;;
8225;SDS011;4154;48.810;9.012;2023-04-19T04:02:25;13.33;;;11.93;;
8225;SDS011;4154;48.810;9.012;2023-04-19T04:04:53;14.83;;;13.17;;
8225;SDS011;4154;48.810;9.012;2023-04-19T04:07:19;16.73;;;13.60;;
8225;SDS011;4154;48.810;9.012;2023-04-19T04:09:47;15.63;;;13.23;;
8225;SDS011;4154;48.810;9.012;2023-04-19T04:12:13;16.37;;;13.60;;
8225;SDS011;4154;48.810;9.012;2023-04-19T04:14:39;14.87;;;12.87;;
8225;SDS011;4154;48.810;9.012;2023-04-19T04:17:05;13.77;;;12.10;;
8225;SDS011;4154;48.810;9.012;2023-04-19T04:19:31;14.80;;;13.20;;
8225;SDS011;4154;48.810;9.012;2023-04-19T04:21:57;14.60;;;13.00;;
8225;SDS011;4154;48.810;9.012;2023-04-19T04:24:23;13.70;;;12.30;;
8225;SDS011;4154;48.810;9.012;2023-04-19T04:26:48;14.57;;;13.10;;
8225;SDS011;4154;48.810;9.012;2023-04-19T04:29:15;15.97;;;13.13;;
8225;SDS011;4154;48.810;9.012;2023-04-19T04:31:41;14.40;;;12.83;;
8225;SDS011;4154;48.810;9.012;2023-04-19T04:34:07;15.50;;;13.67;;
8225;SDS011;4154;48.810;9.012;2023-04-19T04:36:34;14.17;;;12.67;;
8225;SDS011;4154;48.810;9.012;2023-04-19T04:39:01;15.00;;;13.00;;
8225;SDS011;4154;48.810;9.012;2023-04-19T04:41:28;14.63;;;13.10;;
8225;SDS011;4154;48.810;9.012;2023-04-19T04:43:55;14.13;;;12.50;;
8225;SDS011;4154;48.810;9.012;2023-04-19T04:46:23;15.30;;;12.30;;
8225;SDS011;4154;48.810;9.012;2023-04-19T04:48:49;16.10;;;12.73;;
8225;SDS011;4154;48.810;9.012;2023-04-19T04:51:16;15.20;;;13.00;;
8225;SDS011;4154;48.810;9.012;2023-04-19T04:53:41;14.33;;;12.83;;
8225;SDS011;4154;48.810;9.012;2023-04-19T04:56:07;16.40;;;12.93;;
8225;SDS011;4154;48.810;9.012;2023-04-19T04:58:33;16.13;;;12.37;;
8225;SDS011;4154;48.810;9.012;2023-04-19T05:00:58;15.37;;;12.40;;
8225;SDS011;4154;48.810;9.012;2023-04-19T05:03:24;14.67;;;12.17;;
8225;SDS011;4154;48.810;9.012;2023-04-19T05:05:51;14.77;;;12.83;;
8225;SDS011;4154;48.810;9.012;2023-04-19T05:08:16;15.50;;;13.07;;
8225;SDS011;4154;48.810;9.012;2023-04-19T05:10:42;13.43;;;11.97;;
8225;SDS011;4154;48.810;9.012;2023-04-19T05:13:09;14.97;;;12.50;;
8225;SDS011;4154;48.810;9.012;2023-04-19T05:15:34;13.67;;;12.13;;
8225;SDS011;4154;48.810;9.012;2023-04-19T05:18:01;14.77;;;11.80;;
8225;SDS011;4154;48.810;9.012;2023-04-19T05:20:27;14.23;;;11.97;;
8225;SDS011;4154;48.810;9.012;2023-04-19T05:22:57;13.50;;;12.10;;
8225;SDS011;4154;48.810;9.012;2023-04-19T05:25:25;13.77;;;12.27;;
8225;SDS011;4154;48.810;9.012;2023-04-19T05:27:51;14.30;;;12.57;;
8225;SDS011;4154;48.810;9.012;2023-04-19T05:30:17;15.10;;;12.27;;
8225;SDS011;4154;48.810;9.012;2023-04-19T05:32:43;13.47;;;12.00;;
8225;SDS011;4154;48.810;9.012;2023-04-19T05:35:09;13.53;;;12.10;;
8225;SDS011;4154;48.810;9.012;2023-04-19T05:37:35;13.27;;;11.73;;
8225;SDS011;4154;48.810;9.012;2023-04-19T05:40:02;13.30;;;11.93;;
8225;SDS011;4154;48.810;9.012;2023-04-19T05:42:29;13.53;;;11.83;;
8225;SDS011;4154;48.810;9.012;2023-04-19T05:44:55;13.80;;;12.03;;
8225;SDS011;4154;48.810;9.012;2023-04-19T05:47:21;14.10;;;12.60;;
8225;SDS011;4154;48.810;9.012;2023-04-19T05:49:47;13.67;;;12.27;;
8225;SDS011;4154;48.810;9.012;2023-04-19T05:52:13;13.53;;;12.13;;
8225;SDS011;4154;48.810;9.012;2023-04-19T05:54:39;13.97;;;12.40;;
8225;SDS011;4154;48.810;9.012;2023-04-19T05:57:05;14.97;;;13.20;;
8225;SDS011;4154;48.810;9.012;2023-04-19T05:59:31;15.27;;;12.80;;
8225;SDS011;4154;48.810;9.012;2023-04-19T06:01:56;13.80;;;12.23;;
8225;SDS011;4154;48.810;9.012;2023-04-19T06:04:22;15.30;;;12.60;;
8225;SDS011;4154;48.810;9.012;2023-04-19T06:06:48;16.37;;;12.40;;
8225;SDS011;4154;48.810;9.012;2023-04-19T06:09:14;13.53;;;12.13;;
8225;SDS011;4154;48.810;9.012;2023-04-19T06:11:42;14.10;;;12.10;;
8225;SDS011;4154;48.810;9.012;2023-04-19T06:14:09;13.33;;;11.73;;
8225;SDS011;4154;48.810;9.012;2023-04-19T06:16:37;13.87;;;12.43;;
8225;SDS011;4154;48.810;9.012;2023-04-19T06:19:03;13.37;;;11.97;;
8225;SDS011;4154;48.810;9.012;2023-04-19T06:21:30;14.17;;;12.40;;
8225;SDS011;4154;48.810;9.012;2023-04-19T06:23:56;14.03;;;11.70;;
8225;SDS011;4154;48.810;9.012;2023-04-19T06:26:22;14.20;;;11.63;;
8225;SDS011;4154;48.810;9.012;2023-04-19T06:28:48;13.17;;;11.87;;
8225;SDS011;4154;48.810;9.012;2023-04-19T06:31:14;13.03;;;11.23;;
8225;SDS011;4154;48.810;9.012;2023-04-19T06:33:40;13.63;;;12.03;;
8225;SDS011;4154;48.810;9.012;2023-04-19T06:36:05;12.67;;;11.37;;
8225;SDS011;4154;48.810;9.012;2023-04-19T06:38:31;12.80;;;11.50;;
8225;SDS011;4154;48.810;9.012;2023-04-19T06:40:57;13.03;;;11.40;;
8225;SDS011;4154;48.810;9.012;2023-04-19T06:43:22;15.37;;;12.20;;
8225;SDS011;4154;48.810;9.012;2023-04-19T06:45:48;13.43;;;12.13;;
8225;SDS011;4154;48.810;9.012;2023-04-19T06:48:22;12.90;;;11.60;;
8225;SDS011;4154;48.810;9.012;2023-04-19T06:50:48;13.17;;;11.33;;
8225;SDS011;4154;48.810;9.012;2023-04-19T06:53:14;12.87;;;11.57;;
8225;SDS011;4154;48.810;9.012;2023-04-19T06:55:40;12.97;;;11.67;;
8225;SDS011;4154;48.810;9.012;2023-04-19T06:58:05;13.10;;;11.70;;
8225;SDS011;4154;48.810;9.012;2023-04-19T07:00:34;13.07;;;11.77;;
8225;SDS011;4154;48.810;9.012;2023-04-19T07:03:01;13.40;;;11.70;;
8225;SDS011;4154;48.810;9.012;2023-04-19T07:05:27;13.20;;;11.80;;
8225;SDS011;4154;48.810;9.012;2023-04-19T07:07:54;12.83;;;11.50;;
8225;SDS011;4154;48.810;9.012;2023-04-19T07:10:20;12.73;;;11.37;;
8225;SDS011;4154;48.810;9.012;2023-04-19T07:12:46;12.97;;;11.57;;
8225;SDS011;4154;48.810;9.012;2023-04-19T07:15:12;13.80;;;11.73;;
8225;SDS011;4154;48.810;9.012;2023-04-19T07:17:38;28.57;;;12.80;;
8225;SDS011;4154;48.810;9.012;2023-04-19T07:20:05;13.70;;;12.30;;
8225;SDS011;4154;48.810;9.012;2023-04-19T07:22:31;12.93;;;11.57;;
8225;SDS011;4154;48.810;9.012;2023-04-19T07:24:57;12.63;;;11.33;;
8225;SDS011;4154;48.810;9.012;2023-04-19T07:27:23;14.87;;;12.30;;
8225;SDS011;4154;48.810;9.012;2023-04-19T07:29:49;13.33;;;11.93;;
8225;SDS011;4154;48.810;9.012;2023-04-19T07:32:16;13.60;;;12.20;;
8225;SDS011;4154;48.810;9.012;2023-04-19T07:34:42;13.17;;;11.80;;
8225;SDS011;4154;48.810;9.012;2023-04-19T07:37:09;12.67;;;11.27;;
8225;SDS011;4154;48.810;9.012;2023-04-19T07:39:35;12.73;;;11.33;;
8225;SDS011;4154;48.810;9.012;2023-04-19T07:42:00;12.53;;;11.30;;
8225;SDS011;4154;48.810;9.012;2023-04-19T07:44:26;13.20;;;11.90;;
8225;SDS011;4154;48.810;9.012;2023-04-19T07:46:52;12.40;;;11.10;;
8225;SDS011;4154;48.810;9.012;2023-04-19T07:49:17;13.87;;;11.03;;
8225;SDS011;4154;48.810;9.012;2023-04-19T07:51:43;11.70;;;10.60;;
8225;SDS011;4154;48.810;9.012;2023-04-19T07:54:09;11.50;;;10.40;;
8225;SDS011;4154;48.810;9.012;2023-04-19T07:56:35;12.77;;;11.47;;
8225;SDS011;4154;48.810;9.012;2023-04-19T07:59:01;11.93;;;10.73;;
8225;SDS011;4154;48.810;9.012;2023-04-19T08:01:28;11.30;;;10.20;;
8225;SDS011;4154;48.810;9.012;2023-04-19T08:03:54;11.37;;;10.17;;
8225;SDS011;4154;48.810;9.012;2023-04-19T08:06:20;12.03;;;10.43;;
8225;SDS011;4154;48.810;9.012;2023-04-19T08:08:45;11.80;;;10.37;;
8225;SDS011;4154;48.810;9.012;2023-04-19T08:11:12;11.77;;;10.57;;
8225;SDS011;4154;48.810;9.012;2023-04-19T08:13:38;11.10;;;10.00;;
8225;SDS011;4154;48.810;9.012;2023-04-19T08:16:03;11.73;;;10.47;;
8225;SDS011;4154;48.810;9.012;2023-04-19T08:18:30;11.37;;;10.07;;
8225;SDS011;4154;48.810;9.012;2023-04-19T08:20:57;10.33;;;9.33;;
8225;SDS011;4154;48.810;9.012;2023-04-19T08:23:22;10.77;;;9.67;;
8225;SDS011;4154;48.810;9.012;2023-04-19T08:25:48;10.40;;;9.30;;
8225;SDS011;4154;48.810;9.012;2023-04-19T08:28:14;10.87;;;9.77;;
8225;SDS011;4154;48.810;9.012;2023-04-19T08:30:41;10.97;;;9.83;;
8225;SDS011;4154;48.810;9.012;2023-04-19T08:33:07;10.97;;;9.87;;
8225;SDS011;4154;48.810;9.012;2023-04-19T08:35:33;10.73;;;9.10;;
8225;SDS011;4154;48.810;9.012;2023-04-19T08:38:00;10.10;;;8.90;;
8225;SDS011;4154;48.810;9.012;2023-04-19T08:40:26;10.10;;;9.10;;
8225;SDS011;4154;48.810;9.012;2023-04-19T08:42:55;9.80;;;8.80;;
8225;SDS011;4154;48.810;9.012;2023-04-19T08:45:21;10.30;;;9.30;;
8225;SDS011;4154;48.810;9.012;2023-04-19T08:47:52;10.47;;;9.47;;
8225;SDS011;4154;48.810;9.012;2023-04-19T08:50:20;11.50;;;9.43;;
8225;SDS011;4154;48.810;9.012;2023-04-19T08:52:46;9.90;;;8.90;;
8225;SDS011;4154;48.810;9.012;2023-04-19T08:55:13;9.90;;;8.93;;
8225;SDS011;4154;48.810;9.012;2023-04-19T08:57:40;10.30;;;9.10;;
8225;SDS011;4154;48.810;9.012;2023-04-19T09:00:06;10.40;;;9.30;;
8225;SDS011;4154;48.810;9.012;2023-04-19T09:02:43;9.50;;;8.60;;
8225;SDS011;4154;48.810;9.012;2023-04-19T09:05:16;9.90;;;8.90;;
8225;SDS011;4154;48.810;9.012;2023-04-19T09:07:43;10.53;;;9.50;;
8225;SDS011;4154;48.810;9.012;2023-04-19T09:10:11;10.13;;;8.93;;
8225;SDS011;4154;48.810;9.012;2023-04-19T09:12:43;11.47;;;9.50;;
8225;SDS011;4154;48.810;9.012;2023-04-19T09:15:36;11.93;;;10.63;;
8225;SDS011;4154;48.810;9.012;2023-04-19T09:18:05;11.20;;;10.10;;
8225;SDS011;4154;48.810;9.012;2023-04-19T09:20:37;10.80;;;9.50;;
8225;SDS011;4154;48.810;9.012;2023-04-19T09:23:08;11.53;;;9.67;;
8225;SDS011;4154;48.810;9.012;2023-04-19T09:25:38;10.27;;;9.27;;
8225;SDS011;4154;48.810;9.012;2023-04-19T09:28:08;10.53;;;9.53;;
8225;SDS011;4154;48.810;9.012;2023-04-19T09:30:36;11.40;;;10.17;;
8225;SDS011;4154;48.810;9.012;2023-04-19T09:33:03;13.10;;;11.17;;
8225;SDS011;4154;48.810;9.012;2023-04-19T09:35:38;10.43;;;9.33;;
8225;SDS011;4154;48.810;9.012;2023-04-19T09:38:14;10.70;;;9.60;;
8225;SDS011;4154;48.810;9.012;2023-04-19T09:40:40;10.00;;;9.00;;
8225;SDS011;4154;48.810;9.012;2023-04-19T09:43:07;12.07;;;10.00;;
8225;SDS011;4154;48.810;9.012;2023-04-19T09:45:40;10.27;;;9.27;;
8225;SDS011;4154;48.810;9.012;2023-04-19T09:48:08;10.83;;;9.73;;
8225;SDS011;4154;48.810;9.012;2023-04-19T09:50:36;11.07;;;9.87;;
8225;SDS011;4154;48.810;9.012;2023-04-19T09:53:26;11.77;;;10.47;;
8225;SDS011;4154;48.810;9.012;2023-04-19T09:55:54;18.10;;;12.53;;
8225;SDS011;4154;48.810;9.012;2023-04-19T09:58:20;10.43;;;9.37;;
8225;SDS011;4154;48.810;9.012;2023-04-19T10:00:46;9.73;;;8.80;;
8225;SDS011;4154;48.810;9.012;2023-04-19T10:03:14;10.13;;;9.13;;
8225;SDS011;4154;48.810;9.012;2023-04-19T10:05:42;11.00;;;9.30;;
8225;SDS011;4154;48.810;9.012;2023-04-19T10:08:10;10.30;;;9.30;;
8225;SDS011;4154;48.810;9.012;2023-04-19T10:10:40;9.63;;;8.63;;
8225;SDS011;4154;48.810;9.012;2023-04-19T10:13:11;10.47;;;9.33;;
8225;SDS011;4154;48.810;9.012;2023-04-19T10:15:40;9.87;;;8.97;;
8225;SDS011;4154;48.810;9.012;2023-04-19T10:18:09;9.60;;;8.50;;
8225;SDS011;4154;48.810;9.012;2023-04-19T10:20:41;10.30;;;9.20;;
8225;SDS011;4154;48.810;9.012;2023-04-19T10:23:19;9.60;;;8.60;;
8225;SDS011;4154;48.810;9.012;2023-04-19T10:25:46;10.40;;;8.50;;
8225;SDS011;4154;48.810;9.012;2023-04-19T10:28:15;12.07;;;9.50;;
8225;SDS011;4154;48.810;9.012;2023-04-19T10:30:58;10.27;;;8.63;;
8225;SDS011;4154;48.810;9.012;2023-04-19T10:33:27;9.02;;;8.13;;
8225;SDS011;4154;48.810;9.012;2023-04-19T10:36:00;9.00;;;8.07;;
8225;SDS011;4154;48.810;9.012;2023-04-19T10:41:12;8.80;;;7.90;;
8225;SDS011;4154;48.810;9.012;2023-04-19T10:43:43;8.27;;;7.47;;
8225;SDS011;4154;48.810;9.012;2023-04-19T10:49:01;9.07;;;7.97;;
8225;SDS011;4154;48.810;9.012;2023-04-19T10:51:33;9.77;;;8.77;;
8225;SDS011;4154;48.810;9.012;2023-04-19T10:54:05;10.03;;;8.97;;
8225;SDS011;4154;48.810;9.012;2023-04-19T11:01:50;10.93;;;9.57;;
8225;SDS011;4154;48.810;9.012;2023-04-19T11:07:02;9.73;;;8.73;;
8225;SDS011;4154;48.810;9.012;2023-04-19T11:09:32;9.63;;;8.63;;
8225;SDS011;4154;48.810;9.012;2023-04-19T11:14:41;10.70;;;9.60;;
8225;SDS011;4154;48.810;9.012;2023-04-19T11:17:30;11.60;;;8.90;;
8225;SDS011;4154;48.810;9.012;2023-04-19T11:20:03;9.93;;;8.73;;
8225;SDS011;4154;48.810;9.012;2023-04-19T11:25:04;9.70;;;8.70;;
8225;SDS011;4154;48.810;9.012;2023-04-19T11:27:45;10.00;;;9.00;;
8225;SDS011;4154;48.810;9.012;2023-04-19T11:30:17;10.37;;;9.30;;
8225;SDS011;4154;48.810;9.012;2023-04-19T11:32:51;9.90;;;8.90;;
8225;SDS011;4154;48.810;9.012;2023-04-19T11:35:22;10.50;;;9.33;;
8225;SDS011;4154;48.810;9.012;2023-04-19T11:37:52;11.20;;;10.10;;
8225;SDS011;4154;48.810;9.012;2023-04-19T11:40:21;10.77;;;9.73;;
8225;SDS011;4154;48.810;9.012;2023-04-19T11:42:53;10.83;;;9.60;;
8225;SDS011;4154;48.810;9.012;2023-04-19T11:45:37;11.90;;;10.10;;
8225;SDS011;4154;48.810;9.012;2023-04-19T11:48:03;12.37;;;10.80;;
8225;SDS011;4154;48.810;9.012;2023-04-19T11:50:38;12.47;;;10.70;;
8225;SDS011;4154;48.810;9.012;2023-04-19T11:53:17;12.37;;;11.03;;
8225;SDS011;4154;48.810;9.012;2023-04-19T11:55:46;11.37;;;10.27;;
8225;SDS011;4154;48.810;9.012;2023-04-19T11:58:23;12.53;;;10.70;;
8225;SDS011;4154;48.810;9.012;2023-04-19T12:01:14;13.00;;;11.57;;
8225;SDS011;4154;48.810;9.012;2023-04-19T12:03:49;12.93;;;11.70;;
8225;SDS011;4154;48.810;9.012;2023-04-19T12:08:52;13.77;;;12.37;;
8225;SDS011;4154;48.810;9.012;2023-04-19T12:11:21;15.57;;;13.43;;
8225;SDS011;4154;48.810;9.012;2023-04-19T12:14:14;15.07;;;13.53;;
8225;SDS011;4154;48.810;9.012;2023-04-19T12:16:43;13.67;;;12.37;;
8225;SDS011;4154;48.810;9.012;2023-04-19T12:19:13;15.00;;;13.50;;
8225;SDS011;4154;48.810;9.012;2023-04-19T12:21:44;15.27;;;13.67;;
8225;SDS011;4154;48.810;9.012;2023-04-19T12:24:13;14.87;;;13.27;;
8225;SDS011;4154;48.810;9.012;2023-04-19T12:26:53;14.77;;;13.23;;
8225;SDS011;4154;48.810;9.012;2023-04-19T12:29:20;15.40;;;13.83;;
8225;SDS011;4154;48.810;9.012;2023-04-19T12:31:46;15.53;;;13.93;;
8225;SDS011;4154;48.810;9.012;2023-04-19T12:34:12;16.47;;;14.77;;
8225;SDS011;4154;48.810;9.012;2023-04-19T12:36:37;16.73;;;13.80;;
8225;SDS011;4154;48.810;9.012;2023-04-19T12:39:03;15.17;;;13.40;;
8225;SDS011;4154;48.810;9.012;2023-04-19T12:41:29;15.67;;;14.10;;
8225;SDS011;4154;48.810;9.012;2023-04-19T12:43:55;17.10;;;13.93;;
8225;SDS011;4154;48.810;9.012;2023-04-19T12:46:21;16.07;;;14.37;;
8225;SDS011;4154;48.810;9.012;2023-04-19T12:48:46;16.27;;;14.57;;
8225;SDS011;4154;48.810;9.012;2023-04-19T12:51:12;17.57;;;14.87;;
8225;SDS011;4154;48.810;9.012;2023-04-19T12:53:40;18.20;;;15.47;;
8225;SDS011;4154;48.810;9.012;2023-04-19T12:56:06;16.70;;;13.90;;
8225;SDS011;4154;48.810;9.012;2023-04-19T12:58:31;17.20;;;13.83;;
8225;SDS011;4154;48.810;9.012;2023-04-19T13:00:57;17.60;;;13.77;;
8225;SDS011;4154;48.810;9.012;2023-04-19T13:03:23;14.17;;;12.67;;
8225;SDS011;4154;48.810;9.012;2023-04-19T13:05:49;13.93;;;12.50;;
8225;SDS011;4154;48.810;9.012;2023-04-19T13:08:15;13.37;;;12.07;;
8225;SDS011;4154;48.810;9.012;2023-04-19T13:10:44;13.27;;;11.87;;
8225;SDS011;4154;48.810;9.012;2023-04-19T13:13:10;11.50;;;10.30;;
8225;SDS011;4154;48.810;9.012;2023-04-19T13:15:36;11.77;;;10.57;;
8225;SDS011;4154;48.810;9.012;2023-04-19T13:18:03;11.57;;;10.40;;
8225;SDS011;4154;48.810;9.012;2023-04-19T13:20:29;12.13;;;10.93;;
8225;SDS011;4154;48.810;9.012;2023-04-19T13:22:54;15.20;;;11.83;;
8225;SDS011;4154;48.810;9.012;2023-04-19T13:25:21;12.27;;;10.97;;
8225;SDS011;4154;48.810;9.012;2023-04-19T13:27:47;12.43;;;11.23;;
8225;SDS011;4154;48.810;9.012;2023-04-19T13:30:13;12.60;;;11.33;;
8225;SDS011;4154;48.810;9.012;2023-04-19T13:32:39;12.13;;;10.83;;
8225;SDS011;4154;48.810;9.012;2023-04-19T13:35:05;12.37;;;11.07;;
8225;SDS011;4154;48.810;9.012;2023-04-19T13:37:31;12.37;;;11.10;;
8225;SDS011;4154;48.810;9.012;2023-04-19T13:39:56;12.20;;;11.03;;
8225;SDS011;4154;48.810;9.012;2023-04-19T13:42:22;14.53;;;11.67;;
8225;SDS011;4154;48.810;9.012;2023-04-19T13:44:47;14.67;;;11.77;;
8225;SDS011;4154;48.810;9.012;2023-04-19T13:47:13;12.90;;;11.60;;
8225;SDS011;4154;48.810;9.012;2023-04-19T13:49:39;11.97;;;10.77;;
8225;SDS011;4154;48.810;9.012;2023-04-19T13:52:05;12.37;;;10.90;;
8225;SDS011;4154;48.810;9.012;2023-04-19T13:54:30;12.63;;;11.40;;
8225;SDS011;4154;48.810;9.012;2023-04-19T13:56:57;13.50;;;12.10;;
8225;SDS011;4154;48.810;9.012;2023-04-19T13:59:22;13.37;;;11.80;;
8225;SDS011;4154;48.810;9.012;2023-04-19T14:01:50;13.30;;;11.30;;
8225;SDS011;4154;48.810;9.012;2023-04-19T14:04:15;12.30;;;10.50;;
8225;SDS011;4154;48.810;9.012;2023-04-19T14:06:43;12.57;;;10.90;;
8225;SDS011;4154;48.810;9.012;2023-04-19T14:09:09;12.20;;;10.90;;
8225;SDS011;4154;48.810;9.012;2023-04-19T14:11:35;13.10;;;11.70;;
8225;SDS011;4154;48.810;9.012;2023-04-19T14:14:02;14.20;;;12.73;;
8225;SDS011;4154;48.810;9.012;2023-04-19T14:16:28;11.90;;;10.70;;
8225;SDS011;4154;48.810;9.012;2023-04-19T14:18:53;13.37;;;11.83;;
8225;SDS011;4154;48.810;9.012;2023-04-19T14:21:19;13.27;;;11.83;;
8225;SDS011;4154;48.810;9.012;2023-04-19T14:23:45;13.57;;;12.17;;
8225;SDS011;4154;48.810;9.012;2023-04-19T14:26:10;14.27;;;12.70;;
8225;SDS011;4154;48.810;9.012;2023-04-19T14:28:37;13.77;;;12.13;;
8225;SDS011;4154;48.810;9.012;2023-04-19T14:31:02;12.67;;;11.37;;
8225;SDS011;4154;48.810;9.012;2023-04-19T14:33:28;15.67;;;12.27;;
8225;SDS011;4154;48.810;9.012;2023-04-19T14:35:55;13.93;;;11.47;;
8225;SDS011;4154;48.810;9.012;2023-04-19T14:38:20;13.67;;;11.90;;
8225;SDS011;4154;48.810;9.012;2023-04-19T14:40:46;12.40;;;11.10;;
8225;SDS011;4154;48.810;9.012;2023-04-19T14:43:15;14.40;;;11.33;;
8225;SDS011;4154;48.810;9.012;2023-04-19T14:45:41;11.97;;;10.77;;
8225;SDS011;4154;48.810;9.012;2023-04-19T14:48:07;11.63;;;10.50;;
8225;SDS011;4154;48.810;9.012;2023-04-19T14:50:33;11.47;;;10.27;;
8225;SDS011;4154;48.810;9.012;2023-04-19T14:53:00;12.37;;;11.07;;
8225;SDS011;4154;48.810;9.012;2023-04-19T14:55:26;11.97;;;10.77;;
8225;SDS011;4154;48.810;9.012;2023-04-19T14:57:51;11.53;;;10.33;;
8225;SDS011;4154;48.810;9.012;2023-04-19T15:00:18;11.87;;;10.67;;
8225;SDS011;4154;48.810;9.012;2023-04-19T15:02:44;14.33;;;12.83;;
8225;SDS011;4154;48.810;9.012;2023-04-19T15:05:10;13.03;;;11.60;;
8225;SDS011;4154;48.810;9.012;2023-04-19T15:07:36;10.70;;;9.50;;
8225;SDS011;4154;48.810;9.012;2023-04-19T15:10:02;10.87;;;9.77;;
8225;SDS011;4154;48.810;9.012;2023-04-19T15:12:28;11.53;;;10.33;;